createdAt,value
2022-08-05T00:00:26.664Z,41.95
2022-08-05T00:03:00.266Z,57.67
2022-08-05T00:06:04.661Z,46.28
2022-08-05T00:08:34.967Z,34.03
2022-08-05T00:11:20.726Z,38.20
2022-08-05T00:13:59.103Z,48.90
2022-08-05T00:16:35.749Z,44.15
2022-08-05T00:19:06.762Z,45.03
2022-08-05T00:21:38.212Z,44.78
2022-08-05T00:24:24.060Z,46.65
2022-08-05T00:26:54.573Z,46.35
2022-08-05T00:29:25.505Z,44.70
2022-08-05T00:32:12.142Z,95.22
2022-08-05T00:35:03.513Z,74.57
2022-08-05T00:37:52.964Z,56.63
2022-08-05T00:40:29.506Z,69.63
2022-08-05T00:43:02.002Z,51.10
2022-08-05T00:45:38.501Z,169.93
2022-08-05T00:48:14.722Z,45.10
2022-08-05T00:50:48.088Z,94.15
2022-08-05T00:54:00.841Z,46.83
2022-08-05T00:56:12.627Z,44.42
2022-08-05T00:58:46.940Z,66.38
2022-08-05T01:01:42.257Z,61.92
2022-08-05T01:04:14.030Z,112.97
2022-08-05T01:06:48.621Z,107.70
2022-08-05T01:09:23.268Z,59.85
2022-08-05T01:12:17.852Z,45.47
2022-08-05T01:14:58.541Z,61.53
2022-08-05T01:17:44.808Z,165.95
2022-08-05T01:20:36.094Z,60.78
2022-08-05T01:23:23.699Z,82.50
2022-08-05T01:26:31.506Z,69.20
2022-08-05T01:29:06.765Z,64.82
2022-08-05T01:31:45.201Z,88.35
2022-08-05T01:34:21.114Z,65.00
2022-08-05T01:36:57.561Z,87.05
2022-08-05T01:39:46.441Z,63.88
2022-08-05T01:42:20.997Z,62.58
2022-08-05T01:44:54.149Z,88.20
2022-08-05T01:47:39.641Z,61.00
2022-08-05T01:50:17.370Z,99.72
2022-08-05T01:52:50.326Z,61.38
2022-08-05T01:55:24.175Z,56.13
2022-08-05T01:58:10.897Z,72.18
2022-08-05T02:00:51.576Z,67.38
2022-08-05T02:03:31.829Z,53.47
2022-08-05T02:06:33.894Z,70.05
2022-08-05T02:08:58.457Z,61.05
2022-08-05T02:11:34.229Z,59.35
2022-08-05T02:14:12.910Z,68.55
2022-08-05T02:16:53.093Z,81.57
2022-08-05T02:19:34.492Z,61.65
2022-08-05T02:22:25.391Z,62.88
2022-08-05T02:25:04.851Z,62.25
2022-08-05T02:27:59.128Z,84.75
2022-08-05T02:30:38.899Z,60.95
2022-08-05T02:33:24.572Z,57.28
2022-08-05T02:36:09.623Z,56.00
2022-08-05T02:38:52.799Z,74.97
2022-08-05T02:41:28.986Z,106.97
2022-08-05T02:44:13.923Z,74.18
2022-08-05T02:46:58.444Z,51.75
2022-08-05T02:49:37.705Z,75.43
2022-08-05T02:52:13.692Z,54.45
2022-08-05T02:55:01.725Z,70.32
2022-08-05T02:58:09.288Z,61.22
2022-08-05T03:00:27.006Z,63.22
2022-08-05T03:02:58.599Z,82.97
2022-08-05T03:06:53.645Z,72.63
2022-08-05T03:08:29.733Z,52.40
2022-08-05T03:11:53.326Z,90.18
2022-08-05T03:13:51.781Z,67.20
2022-08-05T03:16:32.485Z,86.22
2022-08-05T03:19:12.853Z,85.00
2022-08-05T03:21:56.378Z,101.95
2022-08-05T03:24:30.809Z,72.57
2022-08-05T03:27:01.182Z,78.78
2022-08-05T03:29:45.894Z,69.07
2022-08-05T03:32:20.658Z,56.60
2022-08-05T03:34:51.607Z,53.10
2022-08-05T03:37:22.992Z,68.15
2022-08-05T03:40:03.987Z,61.42
2022-08-05T03:42:51.565Z,58.58
2022-08-05T03:45:23.524Z,69.15
2022-08-05T03:47:56.935Z,173.85
2022-08-05T03:50:26.800Z,61.22
2022-08-05T03:55:00.456Z,63.67
2022-08-05T03:56:17.170Z,203.90
2022-08-05T03:59:00.365Z,78.43
2022-08-05T04:01:32.899Z,88.38
2022-08-05T04:04:09.737Z,91.60
2022-08-05T04:06:47.377Z,57.60
2022-08-05T04:09:26.018Z,88.57
2022-08-05T04:11:56.969Z,78.63
2022-08-05T04:14:30.370Z,97.90
2022-08-05T04:17:02.875Z,82.75
2022-08-05T04:19:32.302Z,58.75
2022-08-05T04:22:08.358Z,100.35
2022-08-05T04:24:43.980Z,86.88
2022-08-05T04:27:15.194Z,59.63
2022-08-05T04:29:44.688Z,64.03
2022-08-05T04:32:15.657Z,77.45
2022-08-05T04:35:00.347Z,60.72
2022-08-05T04:38:02.724Z,70.40
2022-08-05T04:40:20.338Z,57.38
2022-08-05T04:42:49.548Z,65.72
2022-08-05T04:45:22.926Z,78.38
2022-08-05T04:48:06.758Z,102.03
2022-08-05T04:51:01.970Z,80.05
2022-08-05T04:53:35.400Z,60.00
2022-08-05T04:56:33.381Z,108.43
2022-08-05T04:58:56.758Z,105.60
2022-08-05T05:02:05.654Z,69.05
2022-08-05T05:04:15.402Z,121.45
2022-08-05T05:06:52.018Z,118.82
2022-08-05T05:09:27.013Z,72.90
2022-08-05T05:12:00.358Z,87.30
2022-08-05T05:14:32.407Z,109.18
2022-08-05T05:17:03.271Z,67.22
2022-08-05T05:19:39.626Z,77.82
2022-08-05T05:22:24.472Z,87.40
2022-08-05T05:24:57.067Z,71.22
2022-08-05T05:27:45.888Z,150.27
2022-08-05T05:30:29.173Z,124.43
2022-08-05T05:33:00.368Z,94.93
2022-08-05T05:35:31.611Z,213.45
2022-08-05T05:38:05.650Z,70.57
2022-08-05T05:40:38.849Z,80.97
2022-08-05T05:43:14.404Z,60.47
2022-08-05T05:45:48.237Z,112.07
2022-08-05T05:48:17.756Z,60.22
2022-08-05T05:50:56.785Z,126.30
2022-08-05T05:53:26.014Z,84.05
2022-08-05T05:56:00.709Z,119.00
2022-08-05T05:58:32.503Z,82.40
2022-08-05T06:01:12.918Z,74.28
2022-08-05T06:04:00.452Z,66.15
2022-08-05T06:06:33.035Z,62.88
2022-08-05T06:09:03.805Z,122.30
2022-08-05T06:11:33.543Z,112.85
2022-08-05T06:14:04.649Z,94.57
2022-08-05T06:16:37.267Z,101.03
2022-08-05T06:19:08.078Z,84.47
2022-08-05T06:21:42.941Z,65.38
2022-08-05T06:24:25.772Z,71.95
2022-08-05T06:26:56.664Z,63.40
2022-08-05T06:29:49.338Z,85.97
2022-08-05T06:32:25.797Z,99.75
2022-08-05T06:34:56.643Z,63.20
2022-08-05T06:37:56.586Z,51.70
2022-08-05T06:40:18.131Z,44.22
2022-08-05T06:42:52.861Z,58.47
2022-08-05T06:45:44.730Z,41.15
2022-08-05T06:48:47.289Z,46.13
2022-08-05T06:51:09.394Z,65.22
2022-08-05T06:53:39.824Z,59.05
2022-08-05T06:56:11.707Z,58.72
2022-08-05T06:58:57.878Z,41.67
2022-08-05T07:01:40.464Z,134.80
2022-08-05T07:04:10.943Z,55.15
2022-08-05T07:06:50.459Z,78.60
2022-08-05T07:09:20.040Z,77.72
2022-08-05T07:11:55.913Z,45.05
2022-08-05T07:14:49.166Z,44.55
2022-08-05T07:18:08.755Z,41.38
2022-08-05T07:20:37.040Z,53.53
2022-08-05T07:23:08.254Z,126.03
2022-08-05T07:25:54.818Z,64.13
2022-08-05T07:28:26.493Z,44.67
2022-08-05T07:30:55.999Z,45.42
2022-08-05T07:33:35.247Z,52.42
2022-08-05T07:36:21.157Z,45.92
2022-08-05T07:38:54.876Z,47.95
2022-08-05T07:42:14.720Z,44.50
2022-08-05T07:44:18.991Z,36.78
2022-08-05T07:46:50.375Z,32.75
2022-08-05T07:49:21.558Z,26.52
2022-08-05T07:51:55.049Z,28.50
2022-08-05T07:54:31.065Z,31.40
2022-08-05T07:57:17.834Z,26.25
2022-08-05T07:59:50.904Z,120.35
2022-08-05T08:02:26.593Z,62.97
2022-08-05T08:05:02.924Z,59.70
2022-08-05T08:07:39.470Z,52.63
2022-08-05T08:10:22.859Z,47.10
2022-08-05T08:12:55.466Z,48.55
2022-08-05T08:15:37.177Z,43.08
2022-08-05T08:18:20.764Z,56.97
2022-08-05T08:21:02.289Z,49.65
2022-08-05T08:24:01.239Z,48.90
2022-08-05T08:26:27.017Z,45.25
2022-08-05T08:29:21.900Z,67.38
2022-08-05T08:31:50.988Z,78.07
2022-08-05T08:34:30.285Z,78.05
2022-08-05T08:37:05.143Z,80.05
2022-08-05T08:39:37.780Z,76.18
2022-08-05T08:42:33.677Z,96.60
2022-08-05T08:45:24.265Z,66.60
2022-08-05T08:48:10.641Z,58.50
2022-08-05T08:51:22.806Z,71.82
2022-08-05T08:53:44.264Z,84.57
2022-08-05T08:56:15.009Z,77.38
2022-08-05T08:58:47.881Z,65.50
2022-08-05T09:01:19.718Z,69.40
2022-08-05T09:03:55.671Z,73.38
2022-08-05T09:06:29.586Z,61.58
2022-08-05T09:11:52.824Z,53.13
2022-08-05T09:14:57.545Z,39.20
2022-08-05T09:17:41.124Z,73.38
2022-08-05T09:20:08.349Z,48.17
2022-08-05T09:23:19.176Z,48.58
2022-08-05T09:26:06.777Z,49.72
2022-08-05T09:28:40.840Z,50.08
2022-08-05T09:31:23.011Z,40.13
2022-08-05T09:34:05.515Z,42.15
2022-08-05T09:36:55.859Z,51.88
2022-08-05T09:39:45.008Z,92.97
2022-08-05T09:42:23.091Z,66.85
2022-08-05T09:44:56.121Z,48.70
2022-08-05T09:47:48.112Z,54.83
2022-08-05T09:50:43.567Z,59.63
2022-08-05T09:53:17.148Z,41.40
2022-08-05T09:56:03.770Z,39.30
2022-08-05T09:58:35.853Z,68.07
2022-08-05T10:01:31.443Z,76.65
2022-08-05T10:04:10.519Z,70.30
2022-08-05T10:06:54.809Z,81.60
2022-08-05T10:09:29.917Z,53.70
2022-08-05T10:12:30.562Z,69.25
2022-08-05T10:15:22.378Z,77.80
2022-08-05T10:18:14.384Z,73.00
2022-08-05T10:20:49.231Z,48.28
2022-08-05T10:26:14.397Z,47.60
2022-08-05T10:28:46.351Z,56.13
2022-08-05T10:32:53.841Z,71.43
2022-08-05T10:34:09.655Z,60.97
2022-08-05T10:36:41.406Z,42.45
2022-08-05T10:39:24.385Z,65.30
2022-08-05T10:42:02.309Z,104.10
2022-08-05T10:44:34.011Z,79.63
2022-08-05T10:47:26.497Z,74.25
2022-08-05T10:50:32.299Z,69.32
2022-08-05T10:53:00.014Z,89.15
2022-08-05T10:55:32.935Z,94.85
2022-08-05T10:58:20.743Z,105.53
2022-08-05T11:00:55.363Z,90.75
2022-08-05T11:03:35.012Z,98.88
2022-08-05T11:06:16.155Z,77.57
2022-08-05T11:09:18.859Z,76.03
2022-08-05T11:12:03.232Z,65.72
2022-08-05T11:15:01.018Z,66.65
2022-08-05T11:17:57.948Z,69.80
2022-08-05T11:20:44.701Z,73.32
2022-08-05T11:24:04.560Z,80.40
2022-08-05T11:26:43.282Z,63.00
2022-08-05T11:29:40.496Z,65.32
2022-08-05T11:32:27.515Z,55.42
2022-08-05T11:34:58.641Z,42.88
2022-08-05T11:38:30.195Z,58.50
2022-08-05T11:41:14.181Z,42.00
2022-08-05T11:44:07.387Z,77.88
2022-08-05T11:47:09.911Z,54.53
2022-08-05T11:52:11.219Z,42.80
2022-08-05T11:54:43.629Z,60.20
2022-08-05T11:57:30.706Z,48.75
2022-08-05T12:00:28.841Z,62.38
2022-08-05T12:02:58.744Z,52.15
2022-08-05T12:05:32.376Z,42.63
2022-08-05T12:08:11.531Z,51.47
2022-08-05T12:10:46.303Z,53.17
2022-08-05T12:13:28.042Z,95.20
2022-08-05T12:16:14.484Z,178.25
2022-08-05T12:18:52.261Z,155.20
2022-08-05T12:21:26.935Z,174.35
2022-08-05T12:24:07.264Z,170.95
2022-08-05T12:26:43.822Z,192.65
2022-08-05T12:29:17.908Z,179.30
2022-08-05T12:31:55.327Z,197.65
2022-08-05T12:37:00.148Z,216.05
2022-08-05T12:39:37.210Z,218.53
2022-08-05T12:42:18.201Z,207.57
2022-08-05T12:44:50.001Z,133.50
2022-08-05T12:47:30.690Z,180.88
2022-08-05T12:50:04.815Z,159.32
2022-08-05T12:52:38.655Z,120.63
2022-08-05T12:55:25.345Z,112.00
2022-08-05T12:58:49.001Z,94.10
2022-08-05T13:02:04.055Z,74.75
2022-08-05T13:03:38.947Z,65.28
2022-08-05T13:06:19.889Z,78.40
2022-08-05T13:08:51.545Z,84.28
2022-08-05T13:11:59.760Z,68.85
2022-08-05T13:14:36.079Z,98.10
2022-08-05T13:17:11.451Z,77.75
2022-08-05T13:19:51.874Z,65.20
2022-08-05T13:22:28.010Z,84.22
2022-08-05T13:25:05.426Z,76.82
2022-08-05T13:27:39.112Z,113.97
2022-08-05T13:30:33.987Z,93.13
2022-08-05T13:33:03.546Z,108.53
2022-08-05T13:35:47.021Z,89.25
2022-08-05T13:38:36.071Z,119.38
2022-08-05T13:41:05.928Z,130.98
2022-08-05T13:43:44.304Z,130.88
2022-08-05T13:46:50.888Z,154.77
2022-08-05T13:49:17.157Z,142.65
2022-08-05T13:51:47.103Z,149.10
2022-08-05T13:54:21.171Z,150.45
2022-08-05T13:56:54.744Z,144.27
2022-08-05T13:59:26.976Z,114.35
2022-08-05T14:02:00.788Z,141.07
2022-08-05T14:04:51.394Z,136.32
2022-08-05T14:07:25.850Z,157.05
2022-08-05T14:10:18.798Z,145.68
2022-08-05T14:12:49.125Z,156.10
2022-08-05T14:16:07.706Z,172.10
2022-08-05T14:18:17.459Z,168.30
2022-08-05T14:20:48.551Z,150.20
2022-08-05T14:23:24.783Z,148.68
2022-08-05T14:25:57.872Z,153.65
2022-08-05T14:28:28.968Z,178.98
2022-08-05T14:31:00.614Z,153.38
2022-08-05T14:33:59.095Z,169.57
2022-08-05T14:38:53.303Z,155.32
2022-08-05T14:41:23.425Z,156.50
2022-08-05T14:44:02.272Z,130.65
2022-08-05T14:46:39.271Z,136.55
2022-08-05T14:49:10.823Z,128.13
2022-08-05T14:51:42.432Z,135.93
2022-08-05T14:54:28.682Z,136.30
2022-08-05T14:56:59.817Z,122.60
2022-08-05T14:59:35.403Z,124.40
2022-08-05T15:02:15.844Z,105.90
2022-08-05T15:04:47.626Z,113.32
2022-08-05T15:08:06.347Z,101.93
2022-08-05T15:10:09.789Z,131.73
2022-08-05T15:13:00.428Z,104.75
2022-08-05T15:15:54.007Z,109.85
2022-08-05T15:18:18.956Z,120.30
2022-08-05T15:20:49.807Z,105.95
2022-08-05T15:23:20.880Z,112.63
2022-08-05T15:25:52.335Z,82.07
2022-08-05T15:28:27.178Z,97.15
2022-08-05T15:30:58.110Z,100.80
2022-08-05T15:34:05.481Z,100.32
2022-08-05T15:36:25.689Z,97.57
2022-08-05T15:41:02.131Z,92.00
2022-08-05T15:41:55.824Z,87.63
2022-08-05T15:44:26.318Z,93.80
2022-08-05T15:46:57.101Z,121.90
2022-08-05T15:49:53.570Z,112.95
2022-08-05T15:52:51.751Z,100.18
2022-08-05T15:55:10.293Z,118.32
2022-08-05T15:57:46.059Z,121.00
2022-08-05T16:00:26.244Z,96.63
2022-08-05T16:03:08.490Z,110.75
2022-08-05T16:05:38.965Z,111.43
2022-08-05T16:08:09.968Z,127.97
2022-08-05T16:10:39.266Z,107.68
2022-08-05T16:13:11.393Z,127.60
2022-08-05T16:15:40.706Z,86.80
2022-08-05T16:18:12.538Z,107.78
2022-08-05T16:20:43.790Z,88.57
2022-08-05T16:23:16.808Z,95.10
2022-08-05T16:25:46.156Z,112.15
2022-08-05T16:28:18.127Z,83.03
2022-08-05T16:30:47.513Z,77.43
2022-08-05T16:35:52.991Z,62.40
2022-08-05T16:38:28.125Z,81.40
2022-08-05T16:42:12.198Z,47.88
2022-08-05T16:43:56.154Z,88.45
2022-08-05T16:46:25.907Z,87.18
2022-08-05T16:48:57.172Z,84.15
2022-08-05T16:51:31.083Z,86.30
2022-08-05T16:54:24.849Z,58.08
2022-08-05T16:57:00.089Z,71.88
2022-08-05T16:59:30.943Z,49.20
2022-08-05T17:02:03.655Z,61.95
2022-08-05T17:04:36.095Z,60.45
2022-08-05T17:07:12.601Z,59.17
2022-08-05T17:09:58.496Z,60.38
2022-08-05T17:12:51.539Z,69.07
2022-08-05T17:15:21.491Z,48.10
2022-08-05T17:17:56.379Z,62.92
2022-08-05T17:20:32.345Z,56.15
2022-08-05T17:23:01.899Z,62.15
2022-08-05T17:25:40.030Z,53.83
2022-08-05T17:28:10.507Z,62.22
2022-08-05T17:30:50.719Z,75.75
2022-08-05T17:33:23.093Z,52.60
2022-08-05T17:36:08.346Z,68.05
2022-08-05T17:38:40.084Z,59.83
2022-08-05T17:41:22.788Z,58.03
2022-08-05T17:44:00.631Z,62.10
2022-08-05T17:46:31.794Z,43.65
2022-08-05T17:49:01.199Z,55.78
2022-08-05T17:51:40.437Z,66.03
2022-08-05T17:54:10.180Z,66.65
2022-08-05T17:56:40.869Z,55.38
2022-08-05T17:59:14.036Z,66.57
2022-08-05T18:01:50.658Z,54.45
2022-08-05T18:04:21.478Z,42.58
2022-08-05T18:07:00.464Z,55.85
2022-08-05T18:09:59.555Z,52.45
2022-08-05T18:12:24.041Z,58.42
2022-08-05T18:14:53.854Z,55.97
2022-08-05T18:17:59.100Z,62.80
2022-08-05T18:20:15.174Z,60.00
2022-08-05T18:22:53.759Z,59.85
2022-08-05T18:25:25.115Z,52.40
2022-08-05T18:27:55.971Z,43.33
2022-08-05T18:30:26.615Z,44.70
2022-08-05T18:33:00.348Z,53.47
2022-08-05T18:36:00.067Z,39.67
2022-08-05T18:38:25.949Z,51.25
2022-08-05T18:41:56.031Z,43.30
2022-08-05T18:43:48.753Z,40.92
2022-08-05T18:46:19.811Z,39.33
2022-08-05T18:48:53.479Z,74.05
2022-08-05T18:52:06.302Z,47.03
2022-08-05T18:54:31.223Z,35.85
2022-08-05T18:57:01.689Z,43.83
2022-08-05T18:59:43.268Z,44.70
2022-08-05T19:02:27.811Z,46.72
2022-08-05T19:05:02.114Z,42.20
2022-08-05T19:07:50.706Z,66.05
2022-08-05T19:10:28.001Z,54.80
2022-08-05T19:12:58.260Z,49.80
2022-08-05T19:15:59.192Z,45.78
2022-08-05T19:18:22.398Z,57.15
2022-08-05T19:20:53.325Z,54.70
2022-08-05T19:24:05.951Z,49.17
2022-08-05T19:26:12.732Z,55.67
2022-08-05T19:28:43.340Z,54.65
2022-08-05T19:31:17.950Z,66.63
2022-08-05T19:33:56.305Z,48.97
2022-08-05T19:36:27.167Z,59.60
2022-08-05T19:39:00.960Z,50.67
2022-08-05T19:41:58.184Z,52.80
2022-08-05T19:44:20.908Z,67.28
2022-08-05T19:46:51.716Z,57.08
2022-08-05T19:49:21.156Z,58.05
2022-08-05T19:52:08.711Z,53.22
2022-08-05T19:54:39.890Z,62.08
2022-08-05T19:57:11.575Z,61.85
2022-08-05T19:59:56.536Z,58.70
2022-08-05T20:02:33.792Z,57.10
2022-08-05T20:05:09.648Z,56.00
2022-08-05T20:07:47.183Z,53.10
2022-08-05T20:10:22.379Z,59.83
2022-08-05T20:12:55.177Z,59.50
2022-08-05T20:15:51.838Z,67.38
2022-08-05T20:18:33.583Z,47.47
2022-08-05T20:21:10.840Z,70.40
2022-08-05T20:23:51.221Z,62.00
2022-08-05T20:26:25.378Z,53.28
2022-08-05T20:29:00.765Z,59.47
2022-08-05T20:31:42.981Z,66.35
2022-08-05T20:34:21.632Z,51.63
2022-08-05T20:36:52.992Z,52.03
2022-08-05T20:39:25.858Z,55.33
2022-08-05T20:42:11.636Z,61.40
2022-08-05T20:44:43.995Z,56.15
2022-08-05T20:47:13.593Z,59.33
2022-08-05T20:49:46.118Z,59.83
2022-08-05T20:52:21.010Z,62.05
2022-08-05T20:55:54.270Z,62.28
2022-08-05T20:57:43.925Z,53.10
2022-08-05T21:00:36.344Z,57.80
2022-08-05T21:03:08.100Z,62.20
2022-08-05T21:05:53.552Z,63.35
2022-08-05T21:08:41.565Z,64.53
2022-08-05T21:11:12.664Z,59.53
2022-08-05T21:13:47.513Z,61.47
2022-08-05T21:16:29.832Z,60.03
2022-08-05T21:19:01.571Z,57.55
2022-08-05T21:21:39.606Z,57.60
2022-08-05T21:24:15.587Z,59.72
2022-08-05T21:26:57.949Z,65.55
2022-08-05T21:29:32.163Z,57.65
2022-08-05T21:32:03.652Z,65.47
2022-08-05T21:34:35.671Z,58.65
2022-08-05T21:37:08.282Z,56.40
2022-08-05T21:39:40.382Z,56.20
2022-08-05T21:42:30.486Z,58.65
2022-08-05T21:45:00.017Z,52.63
2022-08-05T21:47:55.753Z,58.72
2022-08-05T21:50:19.743Z,51.28
2022-08-05T21:52:59.068Z,52.58
2022-08-05T21:56:01.135Z,49.63
2022-08-05T21:58:30.895Z,47.35
2022-08-05T22:01:02.381Z,44.38
2022-08-05T22:03:48.825Z,49.58
2022-08-05T22:06:37.007Z,44.28
2022-08-05T22:09:14.589Z,47.67
2022-08-05T22:11:46.881Z,43.33
2022-08-05T22:14:35.311Z,40.58
2022-08-05T22:17:07.665Z,40.78
2022-08-05T22:20:00.131Z,44.40
2022-08-05T22:22:29.438Z,40.40
2022-08-05T22:25:27.240Z,42.55
2022-08-05T22:28:09.658Z,35.28
2022-08-05T22:30:56.725Z,43.33
2022-08-05T22:33:57.490Z,37.53
2022-08-05T22:36:19.285Z,35.53
2022-08-05T22:38:54.246Z,39.53
2022-08-05T22:42:04.144Z,44.03
2022-08-05T22:44:15.290Z,38.05
2022-08-05T22:46:51.787Z,35.00
2022-08-05T22:52:15.470Z,30.77
2022-08-05T22:55:01.865Z,32.17
2022-08-05T22:57:36.526Z,33.35
2022-08-05T23:00:10.991Z,35.55
2022-08-05T23:02:48.229Z,34.33
2022-08-05T23:05:18.466Z,32.40
2022-08-05T23:07:50.385Z,32.10
2022-08-05T23:10:23.494Z,38.20
2022-08-05T23:12:56.007Z,32.17
2022-08-05T23:15:27.166Z,34.33
2022-08-05T23:18:03.520Z,34.25
2022-08-05T23:20:37.275Z,30.40
2022-08-05T23:23:09.045Z,31.80
2022-08-05T23:25:53.155Z,33.72
2022-08-05T23:28:28.830Z,34.25
2022-08-05T23:31:15.704Z,32.95
2022-08-05T23:34:03.735Z,31.13
2022-08-05T23:36:39.720Z,30.02
2022-08-05T23:39:32.435Z,29.13
2022-08-05T23:42:10.915Z,27.45
2022-08-05T23:44:45.353Z,31.33
2022-08-05T23:47:24.865Z,28.50
2022-08-05T23:49:55.606Z,31.13
2022-08-05T23:52:30.580Z,30.05
2022-08-05T23:55:02.077Z,30.77
2022-08-05T23:57:35.202Z,31.45
